sensor_id;sensor_type;location;lat;lon;timestamp;pressure;altitude;pressure_sealevel;temperature;humidity
8717;BME280;4395;48.554;8.820;2023-05-12T00:01:20;95578.72;;;10.38;100.00
8717;BME280;4395;48.554;8.820;2023-05-12T00:03:24;95573.94;;;10.40;100.00
8717;BME280;4395;48.554;8.820;2023-05-12T00:05:27;95571.88;;;10.57;100.00
8717;BME280;4395;48.554;8.820;2023-05-12T00:07:30;95573.31;;;10.70;100.00
8717;BME280;4395;48.554;8.820;2023-05-12T00:09:35;95573.78;;;10.62;100.00
8717;BME280;4395;48.554;8.820;2023-05-12T00:11:38;95516.59;;;10.24;100.00
8717;BME280;4395;48.554;8.820;2023-05-12T00:13:41;95545.06;;;10.68;100.00
8717;BME280;4395;48.554;8.820;2023-05-12T00:15:44;95572.09;;;10.98;100.00
8717;BME280;4395;48.554;8.820;2023-05-12T00:17:47;95568.06;;;11.01;100.00
8717;BME280;4395;48.554;8.820;2023-05-12T00:19:53;95569.13;;;11.00;100.00
8717;BME280;4395;48.554;8.820;2023-05-12T00:21:56;95568.09;;;11.06;100.00
8717;BME280;4395;48.554;8.820;2023-05-12T00:23:59;95553.25;;;10.93;100.00
8717;BME280;4395;48.554;8.820;2023-05-12T00:26:03;95564.84;;;11.04;100.00
8717;BME280;4395;48.554;8.820;2023-05-12T00:28:07;95551.34;;;10.88;100.00
8717;BME280;4395;48.554;8.820;2023-05-12T00:30:10;95497.97;;;10.55;100.00
8717;BME280;4395;48.554;8.820;2023-05-12T00:32:13;95545.63;;;10.70;100.00
8717;BME280;4395;48.554;8.820;2023-05-12T00:34:16;95571.28;;;10.45;100.00
8717;BME280;4395;48.554;8.820;2023-05-12T00:36:19;95574.41;;;10.37;100.00
8717;BME280;4395;48.554;8.820;2023-05-12T00:38:23;95571.34;;;10.55;100.00
8717;BME280;4395;48.554;8.820;2023-05-12T00:40:26;95568.22;;;10.74;100.00
8717;BME280;4395;48.554;8.820;2023-05-12T00:42:32;95523.53;;;10.62;100.00
8717;BME280;4395;48.554;8.820;2023-05-12T00:44:36;95566.44;;;11.00;100.00
8717;BME280;4395;48.554;8.820;2023-05-12T00:46:39;95574.41;;;10.79;100.00
8717;BME280;4395;48.554;8.820;2023-05-12T00:48:42;95500.75;;;10.28;100.00
8717;BME280;4395;48.554;8.820;2023-05-12T00:50:46;95465.56;;;10.24;100.00
8717;BME280;4395;48.554;8.820;2023-05-12T00:52:49;95411.94;;;9.97;100.00
8717;BME280;4395;48.554;8.820;2023-05-12T00:54:52;95514.16;;;10.70;100.00
8717;BME280;4395;48.554;8.820;2023-05-12T00:56:56;95560.31;;;11.14;100.00
8717;BME280;4395;48.554;8.820;2023-05-12T00:59:02;95557.09;;;11.12;100.00
8717;BME280;4395;48.554;8.820;2023-05-12T01:01:06;95570.50;;;11.07;100.00
8717;BME280;4395;48.554;8.820;2023-05-12T01:03:09;95566.22;;;11.11;100.00
8717;BME280;4395;48.554;8.820;2023-05-12T01:05:13;95563.03;;;11.19;100.00
8717;BME280;4395;48.554;8.820;2023-05-12T01:07:18;95555.50;;;11.26;100.00
8717;BME280;4395;48.554;8.820;2023-05-12T01:09:23;95565.19;;;11.27;100.00
8717;BME280;4395;48.554;8.820;2023-05-12T01:11:28;95556.34;;;11.32;100.00
8717;BME280;4395;48.554;8.820;2023-05-12T01:13:32;95523.72;;;11.08;100.00
8717;BME280;4395;48.554;8.820;2023-05-12T01:15:39;95540.97;;;11.22;100.00
8717;BME280;4395;48.554;8.820;2023-05-12T01:17:46;95425.94;;;10.42;100.00
8717;BME280;4395;48.554;8.820;2023-05-12T01:19:56;95566.56;;;11.35;100.00
8717;BME280;4395;48.554;8.820;2023-05-12T01:22:00;95559.31;;;11.36;100.00
8717;BME280;4395;48.554;8.820;2023-05-12T01:24:06;95558.22;;;11.37;100.00
8717;BME280;4395;48.554;8.820;2023-05-12T01:26:12;95559.28;;;11.31;100.00
8717;BME280;4395;48.554;8.820;2023-05-12T01:28:16;95563.59;;;11.32;100.00
8717;BME280;4395;48.554;8.820;2023-05-12T01:30:20;95561.41;;;11.18;100.00
8717;BME280;4395;48.554;8.820;2023-05-12T01:32:24;95552.19;;;10.94;100.00
8717;BME280;4395;48.554;8.820;2023-05-12T01:34:27;95555.91;;;10.88;100.00
8717;BME280;4395;48.554;8.820;2023-05-12T01:36:30;95550.00;;;10.91;100.00
8717;BME280;4395;48.554;8.820;2023-05-12T01:38:33;95442.66;;;10.17;100.00
8717;BME280;4395;48.554;8.820;2023-05-12T01:40:36;95544.03;;;10.74;100.00
8717;BME280;4395;48.554;8.820;2023-05-12T01:42:41;95545.34;;;10.71;100.00
8717;BME280;4395;48.554;8.820;2023-05-12T01:44:46;95547.72;;;10.62;100.00
8717;BME280;4395;48.554;8.820;2023-05-12T01:46:49;95545.78;;;10.53;100.00
8717;BME280;4395;48.554;8.820;2023-05-12T01:48:52;95540.44;;;10.58;100.00
8717;BME280;4395;48.554;8.820;2023-05-12T01:50:58;95551.00;;;10.70;100.00
8717;BME280;4395;48.554;8.820;2023-05-12T01:53:01;95548.47;;;10.53;100.00
8717;BME280;4395;48.554;8.820;2023-05-12T01:55:06;95541.22;;;10.53;100.00
8717;BME280;4395;48.554;8.820;2023-05-12T01:57:17;95547.53;;;10.32;100.00
8717;BME280;4395;48.554;8.820;2023-05-12T01:59:23;95549.81;;;10.50;100.00
8717;BME280;4395;48.554;8.820;2023-05-12T02:01:27;95550.94;;;10.59;100.00
8717;BME280;4395;48.554;8.820;2023-05-12T02:03:31;95535.84;;;10.48;100.00
8717;BME280;4395;48.554;8.820;2023-05-12T02:05:34;95399.41;;;9.66;100.00
8717;BME280;4395;48.554;8.820;2023-05-12T02:07:37;95548.34;;;10.80;100.00
8717;BME280;4395;48.554;8.820;2023-05-12T02:09:42;95551.31;;;10.78;100.00
8717;BME280;4395;48.554;8.820;2023-05-12T02:11:45;95474.00;;;10.43;100.00
8717;BME280;4395;48.554;8.820;2023-05-12T02:13:48;95564.56;;;11.00;100.00
8717;BME280;4395;48.554;8.820;2023-05-12T02:15:53;95553.31;;;11.08;100.00
8717;BME280;4395;48.554;8.820;2023-05-12T02:17:56;95545.53;;;11.12;100.00
8717;BME280;4395;48.554;8.820;2023-05-12T02:20:02;95547.97;;;11.18;100.00
8717;BME280;4395;48.554;8.820;2023-05-12T02:22:05;95554.41;;;11.17;100.00
8717;BME280;4395;48.554;8.820;2023-05-12T02:24:08;95533.94;;;11.06;100.00
8717;BME280;4395;48.554;8.820;2023-05-12T02:26:14;95543.66;;;11.17;100.00
8717;BME280;4395;48.554;8.820;2023-05-12T02:28:17;95554.94;;;11.14;100.00
8717;BME280;4395;48.554;8.820;2023-05-12T02:30:21;95551.72;;;11.12;100.00
8717;BME280;4395;48.554;8.820;2023-05-12T02:32:26;95552.09;;;10.79;100.00
8717;BME280;4395;48.554;8.820;2023-05-12T02:34:30;95555.63;;;10.84;100.00
8717;BME280;4395;48.554;8.820;2023-05-12T02:36:33;95470.81;;;10.51;100.00
8717;BME280;4395;48.554;8.820;2023-05-12T02:38:35;95541.94;;;10.86;100.00
8717;BME280;4395;48.554;8.820;2023-05-12T02:40:41;95526.69;;;10.49;100.00
8717;BME280;4395;48.554;8.820;2023-05-12T02:42:44;95545.59;;;10.65;100.00
8717;BME280;4395;48.554;8.820;2023-05-12T02:44:47;95446.59;;;9.99;100.00
8717;BME280;4395;48.554;8.820;2023-05-12T02:46:51;95548.91;;;10.82;100.00
8717;BME280;4395;48.554;8.820;2023-05-12T02:48:55;95542.50;;;10.93;100.00
8717;BME280;4395;48.554;8.820;2023-05-12T02:50:58;95547.25;;;10.76;100.00
8717;BME280;4395;48.554;8.820;2023-05-12T02:53:00;95543.50;;;10.77;100.00
8717;BME280;4395;48.554;8.820;2023-05-12T02:55:04;95541.66;;;10.82;100.00
8717;BME280;4395;48.554;8.820;2023-05-12T02:57:06;95517.72;;;10.81;100.00
8717;BME280;4395;48.554;8.820;2023-05-12T02:59:11;95546.56;;;11.06;100.00
8717;BME280;4395;48.554;8.820;2023-05-12T03:01:14;95545.94;;;10.83;100.00
8717;BME280;4395;48.554;8.820;2023-05-12T03:03:17;95551.00;;;10.75;100.00
8717;BME280;4395;48.554;8.820;2023-05-12T03:05:21;95553.19;;;10.83;100.00
8717;BME280;4395;48.554;8.820;2023-05-12T03:07:24;95548.41;;;10.90;100.00
8717;BME280;4395;48.554;8.820;2023-05-12T03:09:27;95478.13;;;10.61;100.00
8717;BME280;4395;48.554;8.820;2023-05-12T03:11:30;95548.75;;;11.14;100.00
8717;BME280;4395;48.554;8.820;2023-05-12T03:13:33;95548.22;;;11.17;100.00
8717;BME280;4395;48.554;8.820;2023-05-12T03:15:36;95548.25;;;11.22;100.00
8717;BME280;4395;48.554;8.820;2023-05-12T03:17:40;95550.41;;;11.25;100.00
8717;BME280;4395;48.554;8.820;2023-05-12T03:19:44;95549.84;;;11.23;100.00
8717;BME280;4395;48.554;8.820;2023-05-12T03:21:51;95543.13;;;11.20;100.00
8717;BME280;4395;48.554;8.820;2023-05-12T03:23:54;95548.50;;;11.20;100.00
8717;BME280;4395;48.554;8.820;2023-05-12T03:25:58;95513.19;;;10.97;100.00
8717;BME280;4395;48.554;8.820;2023-05-12T03:28:02;95546.84;;;11.09;100.00
8717;BME280;4395;48.554;8.820;2023-05-12T03:30:06;95548.44;;;11.00;100.00
8717;BME280;4395;48.554;8.820;2023-05-12T03:32:10;95558.16;;;11.11;100.00
8717;BME280;4395;48.554;8.820;2023-05-12T03:34:13;95553.78;;;10.90;100.00
8717;BME280;4395;48.554;8.820;2023-05-12T03:36:16;95559.88;;;10.70;100.00
8717;BME280;4395;48.554;8.820;2023-05-12T03:38:21;95547.88;;;10.93;100.00
8717;BME280;4395;48.554;8.820;2023-05-12T03:40:23;95549.72;;;10.87;100.00
8717;BME280;4395;48.554;8.820;2023-05-12T03:42:26;95552.75;;;11.06;100.00
8717;BME280;4395;48.554;8.820;2023-05-12T03:44:29;95550.63;;;11.13;100.00
8717;BME280;4395;48.554;8.820;2023-05-12T03:46:32;95545.53;;;11.17;100.00
8717;BME280;4395;48.554;8.820;2023-05-12T03:48:35;95550.13;;;11.26;100.00
8717;BME280;4395;48.554;8.820;2023-05-12T03:50:38;95543.69;;;11.27;100.00
8717;BME280;4395;48.554;8.820;2023-05-12T03:52:40;95536.97;;;11.30;100.00
8717;BME280;4395;48.554;8.820;2023-05-12T03:54:45;95539.75;;;10.78;100.00
8717;BME280;4395;48.554;8.820;2023-05-12T03:56:48;95547.25;;;10.76;100.00
8717;BME280;4395;48.554;8.820;2023-05-12T03:58:50;95538.69;;;10.84;100.00
8717;BME280;4395;48.554;8.820;2023-05-12T04:00:55;95541.34;;;10.79;100.00
8717;BME280;4395;48.554;8.820;2023-05-12T04:02:58;95541.66;;;10.82;100.00
8717;BME280;4395;48.554;8.820;2023-05-12T04:05:01;95548.44;;;11.00;100.00
8717;BME280;4395;48.554;8.820;2023-05-12T04:07:04;95538.25;;;11.12;100.00
8717;BME280;4395;48.554;8.820;2023-05-12T04:09:07;95541.50;;;11.19;100.00
8717;BME280;4395;48.554;8.820;2023-05-12T04:11:11;95539.38;;;11.21;100.00
8717;BME280;4395;48.554;8.820;2023-05-12T04:13:15;95540.72;;;11.24;100.00
8717;BME280;4395;48.554;8.820;2023-05-12T04:15:18;95542.06;;;11.26;100.00
8717;BME280;4395;48.554;8.820;2023-05-12T04:17:21;95516.44;;;11.04;100.00
8717;BME280;4395;48.554;8.820;2023-05-12T04:19:26;95544.22;;;11.30;100.00
8717;BME280;4395;48.554;8.820;2023-05-12T04:21:29;95543.69;;;11.27;100.00
8717;BME280;4395;48.554;8.820;2023-05-12T04:23:33;95443.09;;;10.41;100.00
8717;BME280;4395;48.554;8.820;2023-05-12T04:25:37;95543.13;;;11.20;100.00
8717;BME280;4395;48.554;8.820;2023-05-12T04:27:42;95553.63;;;11.27;100.00
8717;BME280;4395;48.554;8.820;2023-05-12T04:29:44;95546.13;;;11.34;100.00
8717;BME280;4395;48.554;8.820;2023-05-12T04:31:47;95548.28;;;11.37;100.00
8717;BME280;4395;48.554;8.820;2023-05-12T04:33:50;95536.16;;;11.24;100.00
8717;BME280;4395;48.554;8.820;2023-05-12T04:35:54;95549.63;;;11.40;100.00
8717;BME280;4395;48.554;8.820;2023-05-12T04:37:57;95550.72;;;11.39;100.00
8717;BME280;4395;48.554;8.820;2023-05-12T04:40:02;95549.09;;;11.38;100.00
8717;BME280;4395;48.554;8.820;2023-05-12T04:42:05;95555.00;;;11.35;100.00
8717;BME280;4395;48.554;8.820;2023-05-12T04:44:10;95431.06;;;10.53;100.00
8717;BME280;4395;48.554;8.820;2023-05-12T04:46:13;95562.53;;;11.38;100.00
8717;BME280;4395;48.554;8.820;2023-05-12T04:48:16;95550.16;;;11.37;100.00
8717;BME280;4395;48.554;8.820;2023-05-12T04:50:19;95559.84;;;11.38;100.00
8717;BME280;4395;48.554;8.820;2023-05-12T04:52:22;95564.69;;;11.41;100.00
8717;BME280;4395;48.554;8.820;2023-05-12T04:54:25;95525.06;;;11.06;100.00
8717;BME280;4395;48.554;8.820;2023-05-12T04:56:29;95567.09;;;11.32;100.00
8717;BME280;4395;48.554;8.820;2023-05-12T04:58:32;95564.44;;;11.37;100.00
8717;BME280;4395;48.554;8.820;2023-05-12T05:00:36;95499.47;;;10.88;100.00
8717;BME280;4395;48.554;8.820;2023-05-12T05:02:39;95571.69;;;11.37;100.00
8717;BME280;4395;48.554;8.820;2023-05-12T05:04:42;95577.34;;;11.40;100.00
8717;BME280;4395;48.554;8.820;2023-05-12T05:06:45;95580.31;;;11.39;100.00
8717;BME280;4395;48.554;8.820;2023-05-12T05:08:48;95567.94;;;11.43;100.00
8717;BME280;4395;48.554;8.820;2023-05-12T05:10:52;95531.28;;;11.16;100.00
8717;BME280;4395;48.554;8.820;2023-05-12T05:12:55;95572.22;;;11.39;100.00
8717;BME280;4395;48.554;8.820;2023-05-12T05:14:58;95579.78;;;11.42;100.00
8717;BME280;4395;48.554;8.820;2023-05-12T05:17:04;95580.31;;;11.44;100.00
8717;BME280;4395;48.554;8.820;2023-05-12T05:19:09;95576.81;;;11.43;100.00
8717;BME280;4395;48.554;8.820;2023-05-12T05:21:26;95580.59;;;11.42;100.00
8717;BME280;4395;48.554;8.820;2023-05-12T05:23:28;95574.91;;;11.39;100.00
8717;BME280;4395;48.554;8.820;2023-05-12T05:25:31;95565.78;;;11.40;100.00
8717;BME280;4395;48.554;8.820;2023-05-12T05:27:34;95575.47;;;11.41;100.00
8717;BME280;4395;48.554;8.820;2023-05-12T05:29:39;95581.66;;;11.41;100.00
8717;BME280;4395;48.554;8.820;2023-05-12T05:31:41;95583.00;;;11.39;100.00
8717;BME280;4395;48.554;8.820;2023-05-12T05:33:46;95581.38;;;11.38;100.00
8717;BME280;4395;48.554;8.820;2023-05-12T05:35:49;95589.97;;;11.35;100.00
8717;BME280;4395;48.554;8.820;2023-05-12T05:37:53;95586.22;;;11.36;100.00
8717;BME280;4395;48.554;8.820;2023-05-12T05:39:56;95593.22;;;11.42;100.00
8717;BME280;4395;48.554;8.820;2023-05-12T05:41:59;95584.34;;;11.46;100.00
8717;BME280;4395;48.554;8.820;2023-05-12T05:44:03;95587.59;;;11.53;100.00
8717;BME280;4395;48.554;8.820;2023-05-12T05:46:06;95593.78;;;11.54;100.00
8717;BME280;4395;48.554;8.820;2023-05-12T05:48:09;95584.13;;;11.58;100.00
8717;BME280;4395;48.554;8.820;2023-05-12T05:50:14;95580.09;;;11.60;100.00
8717;BME280;4395;48.554;8.820;2023-05-12T05:52:17;95594.63;;;11.59;100.00
8717;BME280;4395;48.554;8.820;2023-05-12T05:54:22;95586.28;;;11.61;100.00
8717;BME280;4395;48.554;8.820;2023-05-12T05:56:25;95594.34;;;11.61;100.00
8717;BME280;4395;48.554;8.820;2023-05-12T05:58:28;95593.56;;;11.66;100.00
8717;BME280;4395;48.554;8.820;2023-05-12T06:00:32;95586.28;;;11.71;100.00
8717;BME280;4395;48.554;8.820;2023-05-12T06:02:34;95589.03;;;11.81;100.00
8717;BME280;4395;48.554;8.820;2023-05-12T06:04:39;95580.44;;;11.84;100.00
8717;BME280;4395;48.554;8.820;2023-05-12T06:06:43;95593.09;;;11.89;100.00
8717;BME280;4395;48.554;8.820;2023-05-12T06:08:46;95593.91;;;11.95;100.00
8717;BME280;4395;48.554;8.820;2023-05-12T06:10:48;95590.38;;;11.84;100.00
8717;BME280;4395;48.554;8.820;2023-05-12T06:12:52;95590.13;;;11.85;100.00
8717;BME280;4395;48.554;8.820;2023-05-12T06:14:55;95599.00;;;11.96;100.00
8717;BME280;4395;48.554;8.820;2023-05-12T06:16:58;95600.91;;;12.11;100.00
8717;BME280;4395;48.554;8.820;2023-05-12T06:19:01;95602.00;;;12.15;100.00
8717;BME280;4395;48.554;8.820;2023-05-12T06:21:04;95607.09;;;12.11;100.00
8717;BME280;4395;48.554;8.820;2023-05-12T06:23:08;95608.44;;;12.19;100.00
8717;BME280;4395;48.554;8.820;2023-05-12T06:25:12;95606.56;;;12.24;100.00
8717;BME280;4395;48.554;8.820;2023-05-12T06:27:15;95607.38;;;12.25;100.00
8717;BME280;4395;48.554;8.820;2023-05-12T06:29:20;95604.69;;;12.30;100.00
8717;BME280;4395;48.554;8.820;2023-05-12T06:31:23;95603.88;;;12.35;100.00
8717;BME280;4395;48.554;8.820;2023-05-12T06:33:26;95607.91;;;12.37;100.00
8717;BME280;4395;48.554;8.820;2023-05-12T06:35:29;95613.28;;;12.47;100.00
8717;BME280;4395;48.554;8.820;2023-05-12T06:37:32;95611.94;;;12.55;100.00
8717;BME280;4395;48.554;8.820;2023-05-12T06:39:36;95612.22;;;12.59;100.00
8717;BME280;4395;48.554;8.820;2023-05-12T06:41:39;95607.88;;;12.63;100.00
8717;BME280;4395;48.554;8.820;2023-05-12T06:43:46;95611.66;;;12.62;100.00
8717;BME280;4395;48.554;8.820;2023-05-12T06:45:49;95576.66;;;12.41;100.00
8717;BME280;4395;48.554;8.820;2023-05-12T06:47:52;95613.28;;;12.68;100.00
8717;BME280;4395;48.554;8.820;2023-05-12T06:49:54;95612.44;;;12.72;100.00
8717;BME280;4395;48.554;8.820;2023-05-12T06:51:57;95589.84;;;12.58;100.00
8717;BME280;4395;48.554;8.820;2023-05-12T06:54:00;95617.28;;;12.80;100.00
8717;BME280;4395;48.554;8.820;2023-05-12T06:56:06;95575.81;;;12.61;100.00
8717;BME280;4395;48.554;8.820;2023-05-12T06:58:09;95623.47;;;13.06;100.00
8717;BME280;4395;48.554;8.820;2023-05-12T07:00:13;95599.19;;;13.06;100.00
8717;BME280;4395;48.554;8.820;2023-05-12T07:02:15;95614.00;;;12.99;100.00
8717;BME280;4395;48.554;8.820;2023-05-12T07:04:18;95599.44;;;13.10;100.00
8717;BME280;4395;48.554;8.820;2023-05-12T07:06:22;95613.41;;;13.32;100.00
8717;BME280;4395;48.554;8.820;2023-05-12T07:08:24;95553.38;;;12.86;100.00
8717;BME280;4395;48.554;8.820;2023-05-12T07:10:27;95608.84;;;13.28;100.00
8717;BME280;4395;48.554;8.820;2023-05-12T07:12:31;95611.00;;;13.31;100.00
8717;BME280;4395;48.554;8.820;2023-05-12T07:14:34;95618.53;;;13.34;100.00
8717;BME280;4395;48.554;8.820;2023-05-12T07:16:37;95612.06;;;13.30;100.00
8717;BME280;4395;48.554;8.820;2023-05-12T07:18:40;95616.38;;;13.36;100.00
8717;BME280;4395;48.554;8.820;2023-05-12T07:20:44;95615.53;;;13.40;100.00
8717;BME280;4395;48.554;8.820;2023-05-12T07:22:47;95612.53;;;13.47;100.00
8717;BME280;4395;48.554;8.820;2023-05-12T07:24:51;95613.59;;;13.51;100.00
8717;BME280;4395;48.554;8.820;2023-05-12T07:26:54;95622.22;;;13.53;100.00
8717;BME280;4395;48.554;8.820;2023-05-12T07:28:58;95620.56;;;13.62;100.00
8717;BME280;4395;48.554;8.820;2023-05-12T07:31:02;95625.66;;;13.69;100.00
8717;BME280;4395;48.554;8.820;2023-05-12T07:33:04;95628.03;;;13.80;100.00
8717;BME280;4395;48.554;8.820;2023-05-12T07:35:09;95619.91;;;13.86;100.00
8717;BME280;4395;48.554;8.820;2023-05-12T07:37:12;95618.78;;;13.92;100.00
8717;BME280;4395;48.554;8.820;2023-05-12T07:39:14;95610.63;;;13.97;100.00
8717;BME280;4395;48.554;8.820;2023-05-12T07:41:19;95592.69;;;13.17;100.00
8717;BME280;4395;48.554;8.820;2023-05-12T07:43:22;95616.44;;;13.05;100.00
8717;BME280;4395;48.554;8.820;2023-05-12T07:45:26;95621.22;;;13.39;100.00
8717;BME280;4395;48.554;8.820;2023-05-12T07:47:29;95624.53;;;13.75;100.00
8717;BME280;4395;48.554;8.820;2023-05-12T07:49:32;95617.31;;;13.65;100.00
8717;BME280;4395;48.554;8.820;2023-05-12T07:51:35;95613.69;;;13.31;100.00
8717;BME280;4395;48.554;8.820;2023-05-12T07:53:37;95610.28;;;12.74;100.00
8717;BME280;4395;48.554;8.820;2023-05-12T07:55:41;95587.41;;;12.56;100.00
8717;BME280;4395;48.554;8.820;2023-05-12T07:57:44;95607.25;;;13.11;100.00
8717;BME280;4395;48.554;8.820;2023-05-12T07:59:47;95605.91;;;13.19;100.00
8717;BME280;4395;48.554;8.820;2023-05-12T08:01:51;95616.72;;;13.09;100.00
8717;BME280;4395;48.554;8.820;2023-05-12T08:03:54;95610.75;;;13.12;100.00
8717;BME280;4395;48.554;8.820;2023-05-12T08:05:57;95534.47;;;12.91;100.00
8717;BME280;4395;48.554;8.820;2023-05-12T08:08:00;95609.13;;;13.80;100.00
8717;BME280;4395;48.554;8.820;2023-05-12T08:10:03;95606.13;;;14.21;100.00
8717;BME280;4395;48.554;8.820;2023-05-12T08:12:07;95614.22;;;14.26;100.00
8717;BME280;4395;48.554;8.820;2023-05-12T08:14:09;95608.66;;;14.46;100.00
8717;BME280;4395;48.554;8.820;2023-05-12T08:16:12;95620.41;;;14.66;100.00
8717;BME280;4395;48.554;8.820;2023-05-12T08:18:17;95611.81;;;14.59;100.00
8717;BME280;4395;48.554;8.820;2023-05-12T08:20:19;95604.19;;;16.55;100.00
8717;BME280;4395;48.554;8.820;2023-05-12T08:22:23;95591.44;;;18.20;100.00
8717;BME280;4395;48.554;8.820;2023-05-12T08:24:25;95607.59;;;17.89;94.67
8717;BME280;4395;48.554;8.820;2023-05-12T08:26:28;95510.31;;;16.40;98.16
8717;BME280;4395;48.554;8.820;2023-05-12T08:28:33;95613.78;;;16.48;100.00
8717;BME280;4395;48.554;8.820;2023-05-12T08:30:36;95613.31;;;15.23;100.00
8717;BME280;4395;48.554;8.820;2023-05-12T08:32:39;95618.50;;;15.43;100.00
8717;BME280;4395;48.554;8.820;2023-05-12T08:34:43;95605.19;;;15.47;100.00
8717;BME280;4395;48.554;8.820;2023-05-12T08:36:46;95614.06;;;15.28;100.00
8717;BME280;4395;48.554;8.820;2023-05-12T08:38:49;95610.47;;;15.33;100.00
8717;BME280;4395;48.554;8.820;2023-05-12T08:40:58;95563.69;;;13.88;100.00
8717;BME280;4395;48.554;8.820;2023-05-12T08:43:06;95618.56;;;13.83;100.00
8717;BME280;4395;48.554;8.820;2023-05-12T08:45:14;95609.19;;;13.70;100.00
8717;BME280;4395;48.554;8.820;2023-05-12T08:47:19;95617.88;;;14.40;100.00
8717;BME280;4395;48.554;8.820;2023-05-12T08:49:23;95608.75;;;14.94;100.00
8717;BME280;4395;48.554;8.820;2023-05-12T08:51:31;95617.00;;;15.32;100.00
8717;BME280;4395;48.554;8.820;2023-05-12T08:53:35;95614.63;;;15.25;100.00
8717;BME280;4395;48.554;8.820;2023-05-12T08:55:38;95615.41;;;14.78;100.00
8717;BME280;4395;48.554;8.820;2023-05-12T08:57:51;95610.66;;;15.18;100.00
8717;BME280;4395;48.554;8.820;2023-05-12T08:59:55;95613.72;;;15.35;100.00
8717;BME280;4395;48.554;8.820;2023-05-12T09:02:00;95596.88;;;15.38;100.00
8717;BME280;4395;48.554;8.820;2023-05-12T09:04:05;95621.25;;;15.38;100.00
8717;BME280;4395;48.554;8.820;2023-05-12T09:06:08;95574.09;;;15.20;100.00
8717;BME280;4395;48.554;8.820;2023-05-12T09:08:13;95617.63;;;15.24;100.00
8717;BME280;4395;48.554;8.820;2023-05-12T09:10:17;95615.25;;;14.93;100.00
8717;BME280;4395;48.554;8.820;2023-05-12T09:12:36;95619.31;;;14.67;100.00
8717;BME280;4395;48.554;8.820;2023-05-12T09:14:39;95620.78;;;14.15;100.00
8717;BME280;4395;48.554;8.820;2023-05-12T09:16:44;95583.25;;;14.47;100.00
8717;BME280;4395;48.554;8.820;2023-05-12T09:18:51;95617.97;;;15.41;100.00
8717;BME280;4395;48.554;8.820;2023-05-12T09:20:54;95620.47;;;15.56;100.00
8717;BME280;4395;48.554;8.820;2023-05-12T09:22:57;95622.78;;;15.92;100.00
8717;BME280;4395;48.554;8.820;2023-05-12T09:25:13;95618.53;;;14.90;100.00
8717;BME280;4395;48.554;8.820;2023-05-12T09:27:23;95618.25;;;14.92;100.00
8717;BME280;4395;48.554;8.820;2023-05-12T09:29:26;95615.03;;;14.61;100.00
8717;BME280;4395;48.554;8.820;2023-05-12T09:31:33;95602.94;;;14.53;100.00
8717;BME280;4395;48.554;8.820;2023-05-12T09:33:37;95616.47;;;15.30;100.00
8717;BME280;4395;48.554;8.820;2023-05-12T09:35:40;95623.78;;;15.77;100.00
8717;BME280;4395;48.554;8.820;2023-05-12T09:37:45;95599.66;;;15.33;100.00
8717;BME280;4395;48.554;8.820;2023-05-12T09:39:58;95607.38;;;15.44;100.00
8717;BME280;4395;48.554;8.820;2023-05-12T09:42:02;95620.06;;;15.25;100.00
8717;BME280;4395;48.554;8.820;2023-05-12T09:44:06;95622.38;;;15.61;100.00
8717;BME280;4395;48.554;8.820;2023-05-12T09:46:09;95621.31;;;15.81;100.00
8717;BME280;4395;48.554;8.820;2023-05-12T09:48:12;95623.94;;;15.86;100.00
8717;BME280;4395;48.554;8.820;2023-05-12T09:50:15;95622.41;;;15.80;100.00
8717;BME280;4395;48.554;8.820;2023-05-12T09:52:19;95617.91;;;15.46;100.00
8717;BME280;4395;48.554;8.820;2023-05-12T09:54:23;95617.63;;;15.24;100.00
8717;BME280;4395;48.554;8.820;2023-05-12T09:56:28;95624.03;;;15.33;100.00
8717;BME280;4395;48.554;8.820;2023-05-12T09:58:33;95619.75;;;15.03;100.00
8717;BME280;4395;48.554;8.820;2023-05-12T10:00:37;95617.91;;;14.98;100.00
8717;BME280;4395;48.554;8.820;2023-05-12T10:03:01;95625.19;;;15.27;100.00
8717;BME280;4395;48.554;8.820;2023-05-12T10:05:15;95628.91;;;15.07;100.00
8717;BME280;4395;48.554;8.820;2023-05-12T10:07:23;95622.72;;;14.48;100.00
8717;BME280;4395;48.554;8.820;2023-05-12T10:09:30;95628.31;;;14.57;100.00
8717;BME280;4395;48.554;8.820;2023-05-12T10:11:35;95625.69;;;14.47;100.00
8717;BME280;4395;48.554;8.820;2023-05-12T10:13:39;95623.75;;;14.82;100.00
8717;BME280;4395;48.554;8.820;2023-05-12T10:15:43;95629.09;;;15.16;100.00
8717;BME280;4395;48.554;8.820;2023-05-12T10:17:47;95630.81;;;15.06;100.00
8717;BME280;4395;48.554;8.820;2023-05-12T10:19:55;95617.50;;;15.10;100.00
8717;BME280;4395;48.554;8.820;2023-05-12T10:21:59;95566.44;;;14.51;100.00
8717;BME280;4395;48.554;8.820;2023-05-12T10:24:02;95616.56;;;14.72;100.00
8717;BME280;4395;48.554;8.820;2023-05-12T10:26:06;95619.41;;;14.86;100.00
8717;BME280;4395;48.554;8.820;2023-05-12T10:28:09;95619.66;;;15.37;100.00
8717;BME280;4395;48.554;8.820;2023-05-12T10:30:15;95563.50;;;15.24;100.00
8717;BME280;4395;48.554;8.820;2023-05-12T10:32:18;95618.44;;;15.00;100.00
8717;BME280;4395;48.554;8.820;2023-05-12T10:34:20;95612.44;;;15.27;100.00
8717;BME280;4395;48.554;8.820;2023-05-12T10:36:24;95606.97;;;15.80;100.00
8717;BME280;4395;48.554;8.820;2023-05-12T10:38:34;95587.25;;;15.93;98.53
8717;BME280;4395;48.554;8.820;2023-05-12T10:40:51;95600.16;;;16.01;96.65
8717;BME280;4395;48.554;8.820;2023-05-12T10:42:57;95616.75;;;16.32;99.08
8717;BME280;4395;48.554;8.820;2023-05-12T10:44:59;95605.28;;;16.54;97.56
8717;BME280;4395;48.554;8.820;2023-05-12T10:47:12;95526.44;;;16.18;92.79
8717;BME280;4395;48.554;8.820;2023-05-12T10:49:15;95534.69;;;15.75;96.00
8717;BME280;4395;48.554;8.820;2023-05-12T10:51:21;95606.09;;;16.87;95.20
8717;BME280;4395;48.554;8.820;2023-05-12T10:53:26;95624.44;;;17.36;90.77
8717;BME280;4395;48.554;8.820;2023-05-12T10:55:48;95598.31;;;15.97;98.37
8717;BME280;4395;48.554;8.820;2023-05-12T10:57:53;95604.00;;;16.33;97.78
8717;BME280;4395;48.554;8.820;2023-05-12T10:59:57;95593.03;;;16.89;93.09
8717;BME280;4395;48.554;8.820;2023-05-12T11:02:03;95614.88;;;17.39;90.68
8717;BME280;4395;48.554;8.820;2023-05-12T11:04:11;95592.84;;;17.54;90.47
8717;BME280;4395;48.554;8.820;2023-05-12T11:06:17;95611.97;;;17.22;91.42
8717;BME280;4395;48.554;8.820;2023-05-12T11:08:21;95611.97;;;17.49;90.46